createdAt,value
2023-04-02T00:00:47.895Z,25.00
2023-04-02T00:01:47.924Z,25.00
2023-04-02T00:02:47.966Z,0.00
2023-04-02T00:03:48.027Z,0.00
2023-04-02T00:04:47.971Z,0.00
2023-04-02T00:05:48.003Z,0.00
2023-04-02T00:06:48.038Z,0.00
2023-04-02T00:07:48.054Z,0.00
2023-04-02T00:08:48.106Z,0.00
2023-04-02T00:09:48.126Z,9.08
2023-04-02T00:10:48.156Z,26.76
2023-04-02T00:11:48.188Z,24.56
2023-04-02T00:12:48.242Z,25.11
2023-04-02T00:13:48.275Z,24.53
2023-04-02T00:14:48.300Z,25.84
2023-04-02T00:15:48.337Z,27.49
2023-04-02T00:16:48.550Z,25.00
2023-04-02T00:17:48.455Z,26.96
2023-04-02T00:18:48.441Z,25.00
2023-04-02T00:19:48.480Z,29.27
2023-04-02T00:20:48.509Z,25.37
2023-04-02T00:21:48.549Z,28.91
2023-04-02T00:22:48.579Z,24.91
2023-04-02T00:23:48.614Z,28.15
2023-04-02T00:24:48.642Z,26.28
2023-04-02T00:25:48.674Z,25.00
2023-04-02T00:26:48.709Z,25.99
2023-04-02T00:27:48.765Z,26.68
2023-04-02T00:28:48.794Z,25.00
2023-04-02T00:29:48.802Z,26.18
2023-04-02T00:30:48.835Z,26.14
2023-04-02T00:31:48.911Z,27.81
2023-04-02T00:32:48.952Z,25.00
2023-04-02T00:33:48.938Z,27.42
2023-04-02T00:34:48.973Z,25.60
2023-04-02T00:35:49.024Z,25.27
2023-04-02T00:36:49.044Z,26.58
2023-04-02T00:37:49.068Z,29.57
2023-04-02T00:38:49.130Z,28.20
2023-04-02T00:39:49.142Z,26.70
2023-04-02T00:40:49.173Z,26.18
2023-04-02T00:41:49.216Z,26.19
2023-04-02T00:42:49.249Z,28.20
2023-04-02T00:43:49.259Z,25.00
2023-04-02T00:44:49.325Z,25.41
2023-04-02T00:45:49.419Z,29.18
2023-04-02T00:46:49.371Z,28.26
2023-04-02T00:47:49.424Z,26.14
2023-04-02T00:48:50.412Z,28.88
2023-04-02T00:49:49.481Z,30.32
2023-04-02T00:50:49.556Z,29.22
2023-04-02T00:51:49.539Z,27.56
2023-04-02T00:52:49.586Z,25.29
2023-04-02T00:53:49.613Z,25.00
2023-04-02T00:54:49.663Z,27.27
2023-04-02T00:55:50.420Z,25.54
2023-04-02T00:56:50.100Z,27.41
2023-04-02T00:57:50.133Z,26.46
2023-04-02T00:58:50.131Z,25.93
2023-04-02T00:59:50.182Z,27.67
2023-04-02T01:00:50.157Z,28.63
2023-04-02T01:01:50.180Z,25.87
2023-04-02T01:02:50.248Z,28.47
2023-04-02T01:03:50.148Z,29.97
2023-04-02T01:04:50.119Z,29.82
2023-04-02T01:05:50.134Z,26.68
2023-04-02T01:06:50.137Z,26.94
2023-04-02T01:07:50.127Z,27.99
2023-04-02T01:08:50.144Z,30.64
2023-04-02T01:09:50.204Z,25.60
2023-04-02T01:10:50.235Z,28.64
2023-04-02T01:11:50.255Z,27.59
2023-04-02T01:12:50.303Z,30.61
2023-04-02T01:13:50.341Z,29.20
2023-04-02T01:14:50.380Z,25.00
2023-04-02T01:15:50.446Z,29.25
2023-04-02T01:16:50.485Z,25.00
2023-04-02T01:17:50.516Z,25.52
2023-04-02T01:18:50.552Z,26.24
2023-04-02T01:19:50.561Z,27.06
2023-04-02T01:20:50.591Z,27.39
2023-04-02T01:21:51.004Z,25.97
2023-04-02T01:22:51.010Z,29.24
2023-04-02T01:23:51.007Z,27.96
2023-04-02T01:24:51.037Z,25.44
2023-04-02T01:25:51.011Z,26.74
2023-04-02T01:26:51.017Z,27.15
2023-04-02T01:27:51.016Z,27.45
2023-04-02T01:28:51.019Z,26.84
2023-04-02T01:29:51.022Z,27.70
2023-04-02T01:30:51.023Z,25.83
2023-04-02T01:31:51.043Z,25.47
2023-04-02T01:32:51.097Z,26.88
2023-04-02T01:33:51.058Z,32.01
2023-04-02T01:34:51.094Z,30.45
2023-04-02T01:35:51.155Z,25.93
2023-04-02T01:36:51.157Z,29.82
2023-04-02T01:37:51.194Z,26.29
2023-04-02T01:38:51.225Z,27.33
2023-04-02T01:39:51.259Z,25.00
2023-04-02T01:40:51.292Z,27.66
2023-04-02T01:41:51.327Z,27.53
2023-04-02T01:42:51.364Z,25.07
2023-04-02T01:43:51.405Z,27.47
2023-04-02T01:44:51.434Z,26.55
2023-04-02T01:45:51.471Z,27.26
2023-04-02T01:46:51.597Z,26.98
2023-04-02T01:47:51.605Z,28.77
2023-04-02T01:48:51.590Z,25.00
2023-04-02T01:49:51.610Z,26.49
2023-04-02T01:50:51.626Z,25.97
2023-04-02T01:51:51.664Z,28.39
2023-04-02T01:52:51.690Z,28.18
2023-04-02T01:53:51.729Z,27.88
2023-04-02T01:54:51.756Z,28.00
2023-04-02T01:55:51.785Z,25.85
2023-04-02T01:56:51.896Z,27.94
2023-04-02T01:57:51.860Z,27.02
2023-04-02T01:58:51.880Z,25.00
2023-04-02T01:59:51.939Z,28.11
2023-04-02T02:00:51.967Z,26.29
2023-04-02T02:01:52.038Z,27.51
2023-04-02T02:02:52.044Z,31.26
2023-04-02T02:03:52.034Z,25.61
2023-04-02T02:04:52.085Z,31.86
2023-04-02T02:05:52.086Z,26.97
2023-04-02T02:06:52.118Z,26.54
2023-04-02T02:07:52.173Z,25.98
2023-04-02T02:08:52.199Z,27.88
2023-04-02T02:09:52.213Z,27.09
2023-04-02T02:10:52.236Z,26.20
2023-04-02T02:11:52.288Z,27.35
2023-04-02T02:12:52.311Z,25.72
2023-04-02T02:13:52.935Z,28.00
2023-04-02T02:14:52.509Z,26.46
2023-04-02T02:15:52.396Z,28.62
2023-04-02T02:16:52.415Z,29.13
2023-04-02T02:17:52.474Z,28.48
2023-04-02T02:18:52.475Z,27.93
2023-04-02T02:19:52.507Z,29.77
2023-04-02T02:20:52.574Z,32.48
2023-04-02T02:21:52.586Z,27.08
2023-04-02T02:22:52.612Z,28.72
2023-04-02T02:23:52.643Z,31.52
2023-04-02T02:24:52.672Z,28.19
2023-04-02T02:25:52.702Z,28.17
2023-04-02T02:26:52.733Z,28.89
2023-04-02T02:27:52.770Z,25.33
2023-04-02T02:28:52.804Z,28.38
2023-04-02T02:29:52.830Z,29.84
2023-04-02T02:30:52.880Z,30.13
2023-04-02T02:31:52.957Z,29.86
2023-04-02T02:32:52.980Z,26.16
2023-04-02T02:33:52.984Z,28.38
2023-04-02T02:34:53.013Z,31.30
2023-04-02T02:35:53.174Z,26.70
2023-04-02T02:36:53.132Z,28.38
2023-04-02T02:37:53.094Z,28.85
2023-04-02T02:38:54.446Z,27.82
2023-04-02T02:39:53.210Z,31.53
2023-04-02T02:40:53.241Z,27.63
2023-04-02T02:41:53.269Z,27.32
2023-04-02T02:42:53.297Z,29.02
2023-04-02T02:43:53.335Z,28.67
2023-04-02T02:44:53.364Z,28.02
2023-04-02T02:45:53.402Z,27.68
2023-04-02T02:46:53.423Z,29.49
2023-04-02T02:47:53.470Z,33.13
2023-04-02T02:48:53.476Z,28.23
2023-04-02T02:49:52.496Z,29.50
2023-04-02T02:50:53.528Z,30.21
2023-04-02T02:51:53.559Z,25.70
2023-04-02T02:52:53.646Z,29.29
2023-04-02T02:53:53.629Z,27.05
2023-04-02T02:54:53.656Z,29.28
2023-04-02T02:55:54.452Z,25.00
2023-04-02T02:56:53.733Z,27.45
2023-04-02T02:57:53.745Z,29.36
2023-04-02T02:58:53.787Z,28.85
2023-04-02T02:59:53.823Z,26.62
2023-04-02T03:00:53.824Z,30.27
2023-04-02T03:01:53.855Z,30.81
2023-04-02T03:02:54.032Z,32.31
2023-04-02T03:03:54.225Z,28.89
2023-04-02T03:04:54.458Z,28.13
2023-04-02T03:05:53.974Z,27.84
2023-04-02T03:06:54.028Z,28.17
2023-04-02T03:07:54.035Z,29.19
2023-04-02T03:08:54.097Z,31.50
2023-04-02T03:09:54.092Z,29.08
2023-04-02T03:10:54.131Z,29.28
2023-04-02T03:11:54.172Z,32.29
2023-04-02T03:12:54.195Z,28.04
2023-04-02T03:13:54.227Z,29.10
2023-04-02T03:14:54.257Z,34.20
2023-04-02T03:15:54.301Z,29.61
2023-04-02T03:16:54.323Z,29.49
2023-04-02T03:17:54.423Z,30.27
2023-04-02T03:18:54.397Z,29.97
2023-04-02T03:19:54.428Z,28.86
2023-04-02T03:20:54.475Z,28.75
2023-04-02T03:21:54.493Z,27.65
2023-04-02T03:22:54.531Z,27.74
2023-04-02T03:23:54.568Z,30.84
2023-04-02T03:24:54.634Z,27.44
2023-04-02T03:25:54.631Z,27.87
2023-04-02T03:26:55.471Z,30.49
2023-04-02T03:27:54.708Z,25.67
2023-04-02T03:28:54.734Z,29.55
2023-04-02T03:29:54.771Z,30.40
2023-04-02T03:30:54.813Z,28.35
2023-04-02T03:31:54.840Z,30.79
2023-04-02T03:32:54.918Z,26.77
2023-04-02T03:33:54.889Z,27.99
2023-04-02T03:34:54.922Z,25.58
2023-04-02T03:35:55.006Z,26.64
2023-04-02T03:36:54.995Z,29.27
2023-04-02T03:37:55.033Z,28.15
2023-04-02T03:38:55.056Z,26.41
2023-04-02T03:39:55.084Z,27.78
2023-04-02T03:40:55.142Z,31.63
2023-04-02T03:41:55.163Z,28.85
2023-04-02T03:42:55.187Z,29.23
2023-04-02T03:43:55.225Z,31.10
2023-04-02T03:44:55.249Z,27.66
2023-04-02T03:45:55.271Z,27.77
2023-04-02T03:46:56.115Z,26.81
2023-04-02T03:47:55.396Z,30.79
2023-04-02T03:48:55.372Z,30.57
2023-04-02T03:49:55.390Z,29.29
2023-04-02T03:50:55.428Z,25.58
2023-04-02T03:51:55.482Z,31.26
2023-04-02T03:52:55.477Z,31.13
2023-04-02T03:53:55.510Z,28.76
2023-04-02T03:54:56.494Z,31.84
2023-04-02T03:55:55.594Z,29.08
2023-04-02T03:56:55.688Z,30.42
2023-04-02T03:57:55.647Z,29.55
2023-04-02T03:58:55.676Z,28.76
2023-04-02T03:59:56.537Z,29.19
2023-04-02T04:00:56.118Z,32.70
2023-04-02T04:01:56.167Z,27.94
2023-04-02T04:02:56.162Z,27.23
2023-04-02T04:03:56.132Z,29.20
2023-04-02T04:04:56.117Z,28.85
2023-04-02T04:05:56.113Z,26.19
2023-04-02T04:06:56.112Z,28.71
2023-04-02T04:07:56.122Z,26.55
2023-04-02T04:08:56.480Z,29.45
2023-04-02T04:09:57.025Z,29.91
2023-04-02T04:10:56.148Z,29.00
2023-04-02T04:11:56.113Z,27.49
2023-04-02T04:12:56.146Z,31.27
2023-04-02T04:13:56.114Z,27.19
2023-04-02T04:14:56.143Z,27.93
2023-04-02T04:15:56.163Z,28.11
2023-04-02T04:16:56.253Z,28.04
2023-04-02T04:17:56.231Z,29.60
2023-04-02T04:18:56.243Z,29.04
2023-04-02T04:19:55.264Z,26.93
2023-04-02T04:20:56.308Z,28.40
2023-04-02T04:21:56.346Z,28.04
2023-04-02T04:22:56.350Z,29.50
2023-04-02T04:23:56.383Z,27.16
2023-04-02T04:24:56.415Z,29.69
2023-04-02T04:25:56.447Z,27.91
2023-04-02T04:26:57.031Z,27.79
2023-04-02T04:27:56.526Z,28.55
2023-04-02T04:28:56.568Z,29.39
2023-04-02T04:29:56.566Z,27.88
2023-04-02T04:30:56.607Z,28.49
2023-04-02T04:31:57.026Z,30.54
2023-04-02T04:32:57.064Z,27.83
2023-04-02T04:33:57.034Z,32.20
2023-04-02T04:34:57.034Z,29.62
2023-04-02T04:35:57.078Z,30.09
2023-04-02T04:36:57.032Z,28.27
2023-04-02T04:37:57.042Z,28.33
2023-04-02T04:38:57.042Z,29.60
2023-04-02T04:39:57.041Z,27.91
2023-04-02T04:40:57.042Z,30.41
2023-04-02T04:41:57.037Z,28.60
2023-04-02T04:42:57.038Z,25.77
2023-04-02T04:43:57.053Z,28.52
2023-04-02T04:44:57.065Z,27.93
2023-04-02T04:45:57.074Z,29.55
2023-04-02T04:46:57.996Z,27.87
2023-04-02T04:47:57.163Z,29.67
2023-04-02T04:48:57.167Z,26.77
2023-04-02T04:49:57.193Z,28.90
2023-04-02T04:50:57.224Z,32.85
2023-04-02T04:51:57.256Z,28.91
2023-04-02T04:52:57.287Z,32.88
2023-04-02T04:53:57.332Z,26.33
2023-04-02T04:54:57.373Z,27.55
2023-04-02T04:56:03.478Z,26.55
2023-04-02T04:56:57.422Z,26.94
2023-04-02T04:57:57.385Z,28.31
2023-04-02T04:58:57.377Z,27.92
2023-04-02T04:59:57.373Z,28.27
2023-04-02T05:00:57.386Z,33.61
2023-04-02T05:01:57.374Z,30.18
2023-04-02T05:02:57.393Z,32.57
2023-04-02T05:03:57.339Z,32.99
2023-04-02T05:04:57.485Z,29.37
2023-04-02T05:05:57.332Z,31.58
2023-04-02T05:06:57.321Z,28.86
2023-04-02T05:07:59.050Z,27.10
2023-04-02T05:08:57.323Z,27.33
2023-04-02T05:09:57.298Z,28.17
2023-04-02T05:10:57.290Z,28.34
2023-04-02T05:11:57.289Z,29.32
2023-04-02T05:12:57.282Z,28.01
2023-04-02T05:13:57.273Z,26.59
2023-04-02T05:14:57.257Z,29.52
2023-04-02T05:15:58.104Z,28.14
2023-04-02T05:16:57.262Z,28.23
2023-04-02T05:17:57.290Z,28.35
2023-04-02T05:18:57.231Z,29.01
2023-04-02T05:19:57.223Z,31.23
2023-04-02T05:20:57.212Z,30.19
2023-04-02T05:21:57.205Z,28.48
2023-04-02T05:23:00.008Z,29.81
2023-04-02T05:23:57.193Z,29.90
2023-04-02T05:24:57.185Z,30.49
2023-04-02T05:25:57.175Z,29.92
2023-04-02T05:26:58.009Z,30.57
2023-04-02T05:27:58.008Z,30.60
2023-04-02T05:28:57.162Z,28.20
2023-04-02T05:29:57.148Z,30.50
2023-04-02T05:30:57.174Z,25.27
2023-04-02T05:31:57.136Z,25.49
2023-04-02T05:32:58.055Z,29.21
2023-04-02T05:33:57.148Z,28.25
2023-04-02T05:34:57.108Z,28.10
2023-04-02T05:35:57.135Z,29.02
2023-04-02T05:36:57.089Z,30.61
2023-04-02T05:37:57.095Z,29.95
2023-04-02T05:38:57.082Z,32.55
2023-04-02T05:40:04.018Z,29.14
2023-04-02T05:40:58.018Z,29.74
2023-04-02T05:41:57.070Z,30.09
2023-04-02T05:42:57.073Z,31.68
2023-04-02T05:43:57.077Z,31.20
2023-04-02T05:44:57.083Z,31.61
2023-04-02T05:45:57.082Z,29.56
2023-04-02T05:46:57.176Z,26.47
2023-04-02T05:47:57.541Z,29.97
2023-04-02T05:48:57.111Z,30.33
2023-04-02T05:49:57.528Z,29.55
2023-04-02T05:50:57.084Z,25.90
2023-04-02T05:51:57.684Z,28.99
2023-04-02T05:52:57.540Z,27.83
2023-04-02T05:53:57.142Z,28.14
2023-04-02T05:54:57.186Z,31.89
2023-04-02T05:55:57.241Z,32.39
2023-04-02T05:56:57.303Z,33.85
2023-04-02T05:58:17.563Z,29.74
2023-04-02T05:58:57.364Z,30.13
2023-04-02T05:59:58.033Z,31.17
2023-04-02T06:00:57.316Z,31.93
2023-04-02T06:01:57.323Z,31.58
2023-04-02T06:02:57.348Z,32.63
2023-04-02T06:03:57.346Z,33.77
2023-04-02T06:04:57.298Z,30.33
2023-04-02T06:05:57.257Z,32.15
2023-04-02T06:06:57.254Z,31.72
2023-04-02T06:07:57.238Z,30.52
2023-04-02T06:08:57.237Z,28.08
2023-04-02T06:09:57.236Z,34.46
2023-04-02T06:10:57.218Z,29.47
2023-04-02T06:11:57.226Z,32.06
2023-04-02T06:12:57.204Z,32.36
2023-04-02T06:13:57.209Z,32.65
2023-04-02T06:14:57.270Z,30.92
2023-04-02T06:15:57.315Z,32.56
2023-04-02T06:16:57.430Z,33.04
2023-04-02T06:17:57.466Z,30.85
2023-04-02T06:18:57.470Z,32.97
2023-04-02T06:19:57.514Z,33.62
2023-04-02T06:20:57.584Z,30.24
2023-04-02T06:21:57.617Z,33.33
2023-04-02T06:22:57.687Z,32.68
2023-04-02T06:23:57.729Z,30.11
2023-04-02T06:24:57.781Z,30.22
2023-04-02T06:25:57.855Z,31.83
2023-04-02T06:26:57.898Z,33.07
2023-04-02T06:27:57.957Z,28.62
2023-04-02T06:28:58.014Z,30.39
2023-04-02T06:29:58.057Z,31.61
2023-04-02T06:30:58.140Z,30.70
2023-04-02T06:31:58.175Z,30.94
2023-04-02T06:32:58.302Z,32.56
2023-04-02T06:33:58.284Z,31.49
2023-04-02T06:34:58.355Z,31.13
2023-04-02T06:35:58.440Z,30.08
2023-04-02T06:36:58.488Z,33.82
2023-04-02T06:37:58.513Z,32.86
2023-04-02T06:38:58.575Z,29.77
2023-04-02T06:39:58.628Z,32.04
2023-04-02T06:40:59.148Z,30.54
2023-04-02T06:41:58.747Z,27.84
2023-04-02T06:42:59.589Z,28.16
2023-04-02T06:43:58.870Z,30.63
2023-04-02T06:44:59.542Z,30.76
2023-04-02T06:45:58.997Z,31.76
2023-04-02T06:46:59.046Z,30.31
2023-04-02T06:47:59.180Z,32.72
2023-04-02T06:48:59.548Z,32.13
2023-04-02T06:49:59.210Z,31.83
2023-04-02T06:50:59.262Z,32.18
2023-04-02T06:51:59.324Z,33.05
2023-04-02T06:52:59.402Z,34.08
2023-04-02T06:53:59.443Z,30.17
2023-04-02T06:54:59.524Z,27.43
2023-04-02T06:55:59.546Z,28.10
2023-04-02T06:56:59.623Z,26.98
2023-04-02T06:57:59.661Z,29.74
2023-04-02T06:58:59.728Z,30.24
2023-04-02T06:59:59.779Z,32.26
2023-04-02T07:01:00.062Z,30.33
2023-04-02T07:01:59.947Z,28.70
2023-04-02T07:02:59.991Z,31.48
2023-04-02T07:04:00.004Z,27.74
2023-04-02T07:05:00.113Z,32.13
2023-04-02T07:06:00.559Z,31.80
2023-04-02T07:07:00.178Z,31.58
2023-04-02T07:08:00.234Z,28.49
2023-04-02T07:09:00.317Z,30.37
2023-04-02T07:10:00.362Z,31.85
2023-04-02T07:11:00.404Z,30.95
2023-04-02T07:12:00.461Z,28.20
2023-04-02T07:13:00.518Z,29.56
2023-04-02T07:14:00.577Z,29.81
2023-04-02T07:15:00.635Z,29.34
2023-04-02T07:16:00.750Z,31.04
2023-04-02T07:17:00.745Z,29.93
2023-04-02T07:18:07.560Z,28.47
2023-04-02T07:19:00.802Z,28.94
2023-04-02T07:20:00.786Z,30.03
2023-04-02T07:21:00.797Z,31.22
2023-04-02T07:22:00.779Z,32.54
2023-04-02T07:23:00.763Z,31.64
2023-04-02T07:24:00.756Z,30.42
2023-04-02T07:25:00.784Z,30.02
2023-04-02T07:26:00.748Z,30.14
2023-04-02T07:27:00.732Z,29.56
2023-04-02T07:28:00.748Z,28.29
2023-04-02T07:29:00.720Z,33.16
2023-04-02T07:30:00.747Z,29.99
2023-04-02T07:31:00.812Z,29.76
2023-04-02T07:32:00.872Z,27.70
2023-04-02T07:33:00.979Z,30.40
2023-04-02T07:34:00.996Z,29.07
2023-04-02T07:35:01.041Z,30.64
2023-04-02T07:36:01.110Z,29.32
2023-04-02T07:37:01.155Z,29.81
2023-04-02T07:38:01.258Z,29.10
2023-04-02T07:39:02.153Z,28.10
2023-04-02T07:40:01.334Z,27.82
2023-04-02T07:41:02.174Z,29.89
2023-04-02T07:42:01.461Z,29.24
2023-04-02T07:43:01.520Z,27.27
2023-04-02T07:44:01.577Z,28.85
2023-04-02T07:45:03.384Z,26.98
2023-04-02T07:46:01.633Z,27.28
2023-04-02T07:47:01.910Z,27.77
2023-04-02T07:48:01.663Z,29.26
2023-04-02T07:49:01.618Z,28.81
2023-04-02T07:50:01.599Z,27.67
2023-04-02T07:51:01.607Z,31.22
2023-04-02T07:52:01.597Z,29.34
2023-04-02T07:53:01.580Z,29.66
2023-04-02T07:54:01.597Z,29.48
2023-04-02T07:55:01.574Z,28.01
2023-04-02T07:56:01.562Z,29.93
2023-04-02T07:57:01.604Z,28.93
2023-04-02T07:58:01.550Z,29.20
2023-04-02T07:59:01.541Z,27.05
2023-04-02T08:00:01.540Z,30.85
2023-04-02T08:01:01.539Z,27.43
2023-04-02T08:02:01.610Z,31.24
2023-04-02T08:03:01.596Z,32.06
2023-04-02T08:04:01.558Z,30.47
2023-04-02T08:05:02.566Z,30.21
2023-04-02T08:06:01.659Z,27.75
2023-04-02T08:07:01.706Z,29.36
2023-04-02T08:08:02.126Z,30.54
2023-04-02T08:09:02.158Z,26.66
2023-04-02T08:10:02.563Z,30.04
2023-04-02T08:11:02.157Z,28.05
2023-04-02T08:12:02.188Z,32.21
2023-04-02T08:13:02.187Z,29.86
2023-04-02T08:14:02.575Z,31.22
2023-04-02T08:15:02.170Z,32.09
2023-04-02T08:16:03.173Z,33.18
2023-04-02T08:17:02.449Z,25.41
2023-04-02T08:18:03.218Z,29.60
2023-04-02T08:19:02.413Z,26.96
2023-04-02T08:20:02.439Z,31.18
2023-04-02T08:21:02.488Z,31.03
2023-04-02T08:22:02.550Z,30.70
2023-04-02T08:23:02.607Z,31.45
2023-04-02T08:24:02.670Z,29.98
2023-04-02T08:25:02.727Z,32.65
2023-04-02T08:26:03.133Z,32.34
2023-04-02T08:27:03.184Z,30.88
2023-04-02T08:28:03.303Z,31.25
2023-04-02T08:29:03.228Z,32.56
2023-04-02T08:30:03.203Z,30.56
2023-04-02T08:31:03.224Z,28.77
2023-04-02T08:32:03.183Z,30.21
2023-04-02T08:33:03.639Z,31.22
2023-04-02T08:34:03.262Z,29.14
2023-04-02T08:35:03.319Z,31.17
2023-04-02T08:36:03.420Z,28.66
2023-04-02T08:37:03.417Z,28.02
2023-04-02T08:38:03.458Z,30.75
2023-04-02T08:39:03.530Z,32.23
2023-04-02T08:40:06.088Z,29.13
2023-04-02T08:41:03.581Z,35.22
2023-04-02T08:42:03.562Z,35.19
2023-04-02T08:43:04.085Z,31.34
2023-04-02T08:44:03.594Z,31.14
2023-04-02T08:45:10.811Z,32.19
2023-04-02T08:46:03.557Z,32.58
2023-04-02T08:47:03.536Z,33.35
2023-04-02T08:48:04.112Z,33.58
2023-04-02T08:49:03.516Z,32.73
2023-04-02T08:50:04.087Z,31.31
2023-04-02T08:51:03.498Z,32.16
2023-04-02T08:52:03.494Z,31.71
2023-04-02T08:53:03.482Z,35.25
2023-04-02T08:54:03.480Z,34.97
2023-04-02T08:55:03.485Z,29.32
2023-04-02T08:56:10.085Z,33.03
2023-04-02T08:57:04.101Z,33.57
2023-04-02T08:58:03.588Z,34.20
2023-04-02T08:59:04.084Z,34.24
2023-04-02T09:00:03.438Z,34.38
2023-04-02T09:01:03.455Z,34.67
2023-04-02T09:02:03.507Z,35.59
2023-04-02T09:03:10.120Z,33.97
2023-04-02T09:04:03.403Z,34.45
2023-04-02T09:05:03.447Z,34.67
2023-04-02T09:06:03.388Z,34.96
2023-04-02T09:07:04.087Z,36.54
2023-04-02T09:08:06.095Z,35.63
2023-04-02T09:09:03.372Z,34.18
2023-04-02T09:10:03.369Z,34.71
2023-04-02T09:11:03.365Z,35.24
2023-04-02T09:12:03.346Z,33.57
2023-04-02T09:13:03.346Z,33.35
2023-04-02T09:14:03.346Z,31.61
2023-04-02T09:15:03.331Z,34.65
2023-04-02T09:16:03.366Z,33.19
2023-04-02T09:17:06.118Z,33.00
2023-04-02T09:18:03.314Z,33.34
2023-04-02T09:19:03.297Z,33.83
2023-04-02T09:20:03.291Z,35.27
2023-04-02T09:21:03.305Z,35.12
2023-04-02T09:22:10.098Z,32.61
2023-04-02T09:23:06.096Z,33.73
2023-04-02T09:24:04.116Z,33.66
2023-04-02T09:25:03.259Z,33.62
2023-04-02T09:26:04.897Z,34.49
2023-04-02T09:27:03.231Z,33.52
2023-04-02T09:28:03.236Z,34.48
2023-04-02T09:29:03.222Z,34.56
2023-04-02T09:30:03.204Z,36.98
2023-04-02T09:31:05.556Z,37.71
2023-04-02T09:32:10.128Z,33.50
2023-04-02T09:33:03.302Z,33.77
2023-04-02T09:34:03.214Z,34.85
2023-04-02T09:35:07.530Z,35.83
2023-04-02T09:36:03.253Z,33.62
2023-04-02T09:37:03.205Z,34.75
2023-04-02T09:38:04.104Z,35.45
2023-04-02T09:39:04.107Z,38.90
2023-04-02T09:40:03.620Z,40.93
2023-04-02T09:41:04.112Z,33.92
2023-04-02T09:42:06.155Z,37.69
2023-04-02T09:43:03.207Z,37.78
2023-04-02T09:44:03.223Z,37.92
2023-04-02T09:45:03.234Z,37.34
2023-04-02T09:46:03.234Z,35.13
2023-04-02T09:47:03.270Z,33.90
2023-04-02T09:48:03.281Z,34.69
2023-04-02T09:49:03.224Z,38.07
2023-04-02T09:50:03.218Z,35.01
2023-04-02T09:51:03.220Z,34.14
2023-04-02T09:52:03.235Z,36.74
2023-04-02T09:53:03.225Z,30.69
2023-04-02T09:54:03.237Z,36.42
2023-04-02T09:55:03.227Z,34.14
2023-04-02T09:56:03.231Z,34.08
2023-04-02T09:57:03.225Z,37.18
2023-04-02T09:58:03.232Z,35.17
2023-04-02T09:59:03.245Z,31.65
2023-04-02T10:00:03.233Z,35.52
2023-04-02T10:01:03.246Z,32.57
2023-04-02T10:02:03.226Z,31.14
2023-04-02T10:03:03.279Z,33.89
2023-04-02T10:04:03.265Z,32.84
2023-04-02T10:05:03.228Z,34.25
2023-04-02T10:06:03.232Z,33.99
2023-04-02T10:07:03.225Z,35.30
2023-04-02T10:08:03.227Z,36.97
2023-04-02T10:09:03.230Z,31.61
2023-04-02T10:10:03.235Z,35.08
2023-04-02T10:11:03.224Z,36.52
2023-04-02T10:12:03.614Z,34.66
2023-04-02T10:13:03.229Z,35.18
2023-04-02T10:14:03.245Z,34.97
2023-04-02T10:15:03.226Z,35.05
2023-04-02T10:16:03.249Z,34.41
2023-04-02T10:17:03.254Z,34.80
2023-04-02T10:18:03.344Z,34.95
2023-04-02T10:19:03.304Z,32.46
2023-04-02T10:20:03.361Z,32.29
2023-04-02T10:21:03.391Z,35.54
2023-04-02T10:22:03.404Z,32.06
2023-04-02T10:23:04.955Z,34.39
2023-04-02T10:24:03.416Z,40.00
2023-04-02T10:25:03.411Z,36.86
2023-04-02T10:26:03.398Z,34.27
2023-04-02T10:27:03.391Z,36.38
2023-04-02T10:28:03.386Z,36.09
2023-04-02T10:29:05.564Z,33.10
2023-04-02T10:30:03.370Z,33.63
2023-04-02T10:31:03.413Z,34.36
2023-04-02T10:32:06.132Z,35.46
2023-04-02T10:33:03.411Z,33.56
2023-04-02T10:34:03.363Z,34.74
2023-04-02T10:35:03.364Z,34.85
2023-04-02T10:36:03.426Z,36.31
2023-04-02T10:37:03.319Z,40.92
2023-04-02T10:38:03.316Z,37.36
2023-04-02T10:39:03.306Z,35.39
2023-04-02T10:40:04.142Z,37.35
2023-04-02T10:41:03.300Z,38.40
2023-04-02T10:42:03.285Z,39.54
2023-04-02T10:43:03.282Z,37.00
2023-04-02T10:44:12.590Z,36.45
2023-04-02T10:45:04.132Z,36.89
2023-04-02T10:46:03.409Z,36.93
2023-04-02T10:47:03.251Z,37.42
2023-04-02T10:48:03.341Z,38.27
2023-04-02T10:49:03.299Z,38.83
2023-04-02T10:50:03.251Z,40.58
2023-04-02T10:51:03.246Z,38.97
2023-04-02T10:52:03.306Z,36.96
2023-04-02T10:53:03.264Z,39.28
2023-04-02T10:54:06.131Z,35.72
2023-04-02T10:55:03.269Z,35.95
2023-04-02T10:56:03.251Z,36.23
2023-04-02T10:57:03.290Z,37.20
2023-04-02T10:58:03.282Z,36.28
2023-04-02T10:59:03.272Z,36.35
2023-04-02T11:00:06.138Z,36.23
2023-04-02T11:01:10.165Z,36.40
2023-04-02T11:02:03.278Z,36.98
2023-04-02T11:03:03.323Z,38.28
2023-04-02T11:04:03.265Z,38.85
2023-04-02T11:05:03.272Z,40.49
2023-04-02T11:06:03.267Z,40.84
2023-04-02T11:07:13.332Z,40.61
2023-04-02T11:08:03.287Z,40.96
2023-04-02T11:09:03.285Z,41.94
2023-04-02T11:10:03.268Z,42.97
2023-04-02T11:11:05.632Z,43.54
2023-04-02T11:12:03.269Z,40.89
2023-04-02T11:13:03.263Z,41.36
2023-04-02T11:14:03.275Z,40.65
2023-04-02T11:15:03.283Z,39.53
2023-04-02T11:16:03.296Z,39.96
2023-04-02T11:17:03.280Z,39.56
2023-04-02T11:18:03.321Z,38.61
2023-04-02T11:19:03.267Z,40.08
2023-04-02T11:20:03.273Z,38.92
2023-04-02T11:21:03.276Z,38.25
2023-04-02T11:22:05.189Z,38.46
2023-04-02T11:23:03.299Z,38.79
2023-04-02T11:24:03.298Z,38.78
2023-04-02T11:25:03.269Z,39.43
2023-04-02T11:26:03.273Z,38.94
2023-04-02T11:27:03.276Z,37.34
2023-04-02T11:28:03.266Z,37.83
2023-04-02T11:29:03.285Z,37.28
2023-04-02T11:30:03.288Z,35.22
2023-04-02T11:31:03.321Z,34.82
2023-04-02T11:32:03.277Z,35.02
2023-04-02T11:33:03.341Z,37.39
2023-04-02T11:34:03.272Z,35.52
2023-04-02T11:35:06.448Z,33.95
2023-04-02T11:36:03.301Z,34.37
2023-04-02T11:37:03.279Z,35.25
2023-04-02T11:38:03.286Z,35.30
2023-04-02T11:39:14.646Z,37.26
2023-04-02T11:40:04.189Z,34.37
2023-04-02T11:41:03.283Z,34.51
2023-04-02T11:42:03.283Z,35.00
2023-04-02T11:43:03.279Z,35.32
2023-04-02T11:44:03.656Z,36.54
2023-04-02T11:45:03.312Z,38.10
2023-04-02T11:46:03.278Z,36.75
2023-04-02T11:47:03.300Z,36.43
2023-04-02T11:48:03.312Z,40.17
2023-04-02T11:49:03.307Z,38.80
2023-04-02T11:50:03.300Z,37.97
2023-04-02T11:51:03.295Z,35.99
2023-04-02T11:52:11.941Z,35.60
2023-04-02T11:53:03.287Z,35.94
2023-04-02T11:54:03.284Z,36.77
2023-04-02T11:55:03.288Z,38.14
2023-04-02T11:56:03.318Z,37.72
2023-04-02T11:57:03.332Z,36.90
2023-04-02T11:58:03.315Z,37.31
2023-04-02T11:59:03.289Z,38.46
2023-04-02T12:00:03.294Z,34.82
2023-04-02T12:01:03.285Z,34.46
2023-04-02T12:02:03.313Z,33.47
2023-04-02T12:03:03.365Z,35.67
2023-04-02T12:04:03.295Z,35.82
2023-04-02T12:05:03.400Z,36.22
2023-04-02T12:06:04.257Z,36.86
2023-04-02T12:07:03.298Z,37.01
2023-04-02T12:08:03.286Z,34.38
2023-04-02T12:09:03.655Z,35.74
2023-04-02T12:10:03.301Z,34.57
2023-04-02T12:11:03.295Z,34.46
2023-04-02T12:12:03.308Z,32.78
2023-04-02T12:13:03.293Z,30.56
2023-04-02T12:14:09.654Z,33.03
2023-04-02T12:15:03.310Z,33.51
2023-04-02T12:16:03.657Z,33.86
2023-04-02T12:17:03.354Z,33.59
2023-04-02T12:18:03.405Z,33.13
2023-04-02T12:19:03.293Z,34.54
2023-04-02T12:20:05.726Z,33.70
2023-04-02T12:21:03.298Z,33.99
2023-04-02T12:22:03.306Z,34.26
2023-04-02T12:23:03.311Z,34.97
2023-04-02T12:24:03.291Z,34.69
2023-04-02T12:25:03.306Z,31.97
2023-04-02T12:26:03.676Z,34.69
2023-04-02T12:27:03.298Z,35.52
2023-04-02T12:28:03.322Z,33.61
2023-04-02T12:29:05.661Z,36.34
2023-04-02T12:30:03.307Z,36.38
2023-04-02T12:31:03.410Z,36.53
2023-04-02T12:32:03.301Z,34.65
2023-04-02T12:33:03.341Z,33.91
2023-04-02T12:34:03.304Z,32.35
2023-04-02T12:35:03.304Z,35.15
2023-04-02T12:36:03.327Z,32.31
2023-04-02T12:37:03.304Z,32.36
2023-04-02T12:38:03.308Z,33.15
2023-04-02T12:39:03.305Z,31.26
2023-04-02T12:40:03.308Z,33.26
2023-04-02T12:41:03.306Z,28.67
2023-04-02T12:42:03.313Z,30.88
2023-04-02T12:43:03.307Z,32.29
2023-04-02T12:44:03.332Z,27.83
2023-04-02T12:45:03.321Z,30.37
2023-04-02T12:46:03.319Z,31.10
2023-04-02T12:47:03.666Z,35.34
2023-04-02T12:48:03.383Z,35.08
2023-04-02T12:49:03.272Z,33.46
2023-04-02T12:50:03.263Z,37.00
2023-04-02T12:51:02.930Z,31.89
2023-04-02T12:52:02.899Z,30.90
2023-04-02T12:53:02.896Z,34.78